Terminal Aerodrome Forecast
Issued by NWS

Home | Current Version | Previous Version | Text Only | Print | Product List | Glossary On
Versions: 1 2 3 4 5 6 7 8 9 10 11 12
000
FTUS42 KTBW 241700
TAFRSW
TAF
KRSW 241740Z 2418/2518 05014G18KT P6SM SCT050 SCT250
     FM250000 03007KT P6SM FEW250
     FM251400 03009KT P6SM SCT040=

USA.gov is the U.S. government's official web portal to all federal, state and local government web resources and services.